sensor_id;sensor_type;location;lat;lon;timestamp;pressure;altitude;pressure_sealevel;temperature
40624;BMP280;26325;48.594;11.650;2023-12-20T17:57:25;96719.03;;;3.84
40624;BMP280;26325;48.594;11.650;2023-12-20T17:59:51;96720.22;;;3.88
40624;BMP280;26325;48.594;11.650;2023-12-20T18:02:16;96710.00;;;4.01
40624;BMP280;26325;48.594;11.650;2023-12-20T18:04:42;96718.84;;;4.18
40624;BMP280;26325;48.594;11.650;2023-12-20T18:07:09;96701.94;;;4.17
40624;BMP280;26325;48.594;11.650;2023-12-20T18:09:35;96707.25;;;4.28
40624;BMP280;26325;48.594;11.650;2023-12-20T18:12:03;96703.69;;;4.35
40624;BMP280;26325;48.594;11.650;2023-12-20T18:14:32;96709.56;;;4.42
40624;BMP280;26325;48.594;11.650;2023-12-20T18:16:58;96710.94;;;4.44
40624;BMP280;26325;48.594;11.650;2023-12-20T18:19:23;96706.81;;;4.50
40624;BMP280;26325;48.594;11.650;2023-12-20T18:21:51;96708.97;;;4.53
40624;BMP280;26325;48.594;11.650;2023-12-20T18:24:17;96704.25;;;4.50
40624;BMP280;26325;48.594;11.650;2023-12-20T18:26:43;96703.47;;;4.56
40624;BMP280;26325;48.594;11.650;2023-12-20T18:29:11;96693.78;;;4.57
40624;BMP280;26325;48.594;11.650;2023-12-20T18:31:38;96711.69;;;4.57
40624;BMP280;26325;48.594;11.650;2023-12-20T18:34:04;96697.34;;;4.63
40624;BMP280;26325;48.594;11.650;2023-12-20T18:36:29;96706.16;;;4.67
40624;BMP280;26325;48.594;11.650;2023-12-20T18:38:59;96697.16;;;4.64
40624;BMP280;26325;48.594;11.650;2023-12-20T18:41:30;96693.38;;;4.73
40624;BMP280;26325;48.594;11.650;2023-12-20T18:43:55;96696.31;;;4.76
40624;BMP280;26325;48.594;11.650;2023-12-20T18:46:21;96697.47;;;4.87
40624;BMP280;26325;48.594;11.650;2023-12-20T18:48:48;96686.84;;;4.77
40624;BMP280;26325;48.594;11.650;2023-12-20T18:51:13;96691.19;;;4.76
40624;BMP280;26325;48.594;11.650;2023-12-20T18:53:39;96690.78;;;4.86
40624;BMP280;26325;48.594;11.650;2023-12-20T18:56:07;96687.47;;;4.73
40624;BMP280;26325;48.594;11.650;2023-12-20T18:58:32;96690.00;;;4.79
40624;BMP280;26325;48.594;11.650;2023-12-20T19:00:59;96684.53;;;4.69
40624;BMP280;26325;48.594;11.650;2023-12-20T19:03:27;96685.25;;;4.82
40624;BMP280;26325;48.594;11.650;2023-12-20T19:05:52;96682.91;;;4.81
40624;BMP280;26325;48.594;11.650;2023-12-20T19:08:18;96684.88;;;4.79
40624;BMP280;26325;48.594;11.650;2023-12-20T19:10:44;96670.91;;;4.81
40624;BMP280;26325;48.594;11.650;2023-12-20T19:13:12;96677.81;;;4.81
40624;BMP280;26325;48.594;11.650;2023-12-20T19:15:39;96692.38;;;4.80
40624;BMP280;26325;48.594;11.650;2023-12-20T19:18:07;96693.59;;;4.72
40624;BMP280;26325;48.594;11.650;2023-12-20T19:20:35;96679.34;;;4.82
40624;BMP280;26325;48.594;11.650;2023-12-20T19:23:01;96695.28;;;4.84
40624;BMP280;26325;48.594;11.650;2023-12-20T19:25:29;96689.03;;;4.80
40624;BMP280;26325;48.594;11.650;2023-12-20T19:27:54;96678.59;;;4.75
40624;BMP280;26325;48.594;11.650;2023-12-20T19:30:21;96666.78;;;4.74
40624;BMP280;26325;48.594;11.650;2023-12-20T19:32:46;96681.72;;;4.83
40624;BMP280;26325;48.594;11.650;2023-12-20T19:35:12;96680.69;;;4.91
40624;BMP280;26325;48.594;11.650;2023-12-20T19:37:38;96688.38;;;4.91
40624;BMP280;26325;48.594;11.650;2023-12-20T19:40:10;96669.47;;;4.92
40624;BMP280;26325;48.594;11.650;2023-12-20T19:42:36;96677.78;;;4.87
40624;BMP280;26325;48.594;11.650;2023-12-20T19:45:05;96678.16;;;4.84
40624;BMP280;26325;48.594;11.650;2023-12-20T19:47:36;96670.28;;;4.86
40624;BMP280;26325;48.594;11.650;2023-12-20T19:50:02;96675.00;;;4.89
40624;BMP280;26325;48.594;11.650;2023-12-20T19:52:30;96674.59;;;4.98
40624;BMP280;26325;48.594;11.650;2023-12-20T19:54:55;96654.72;;;4.93
40624;BMP280;26325;48.594;11.650;2023-12-20T19:57:23;96664.34;;;4.92
40624;BMP280;26325;48.594;11.650;2023-12-20T19:59:54;96658.84;;;4.94
40624;BMP280;26325;48.594;11.650;2023-12-20T20:02:20;96662.16;;;5.01
40624;BMP280;26325;48.594;11.650;2023-12-20T20:04:46;96662.56;;;4.98
40624;BMP280;26325;48.594;11.650;2023-12-20T20:07:15;96654.91;;;4.98
40624;BMP280;26325;48.594;11.650;2023-12-20T20:09:46;96651.97;;;4.89
40624;BMP280;26325;48.594;11.650;2023-12-20T20:12:15;96653.72;;;4.94
40624;BMP280;26325;48.594;11.650;2023-12-20T20:14:46;96655.69;;;4.93
40624;BMP280;26325;48.594;11.650;2023-12-20T20:17:13;96660.38;;;5.02
40624;BMP280;26325;48.594;11.650;2023-12-20T20:19:39;96652.09;;;5.00
40624;BMP280;26325;48.594;11.650;2023-12-20T20:22:05;96661.41;;;4.94
40624;BMP280;26325;48.594;11.650;2023-12-20T20:24:30;96659.59;;;5.01
40624;BMP280;26325;48.594;11.650;2023-12-20T20:26:56;96668.47;;;4.99
40624;BMP280;26325;48.594;11.650;2023-12-20T20:29:22;96662.19;;;4.95
40624;BMP280;26325;48.594;11.650;2023-12-20T20:31:48;96658.06;;;4.94
40624;BMP280;26325;48.594;11.650;2023-12-20T20:34:17;96666.00;;;4.80
40624;BMP280;26325;48.594;11.650;2023-12-20T20:36:44;96662.06;;;4.77
40624;BMP280;26325;48.594;11.650;2023-12-20T20:39:09;96641.63;;;4.71
40624;BMP280;26325;48.594;11.650;2023-12-20T20:41:38;96647.53;;;4.72
40624;BMP280;26325;48.594;11.650;2023-12-20T20:44:04;96657.38;;;4.68
40624;BMP280;26325;48.594;11.650;2023-12-20T20:46:30;96637.28;;;4.65
40624;BMP280;26325;48.594;11.650;2023-12-20T20:48:56;96655.06;;;4.54
40624;BMP280;26325;48.594;11.650;2023-12-20T20:51:24;96659.00;;;4.50
40624;BMP280;26325;48.594;11.650;2023-12-20T20:53:49;96652.69;;;4.53
40624;BMP280;26325;48.594;11.650;2023-12-20T20:56:15;96647.75;;;4.64
40624;BMP280;26325;48.594;11.650;2023-12-20T20:58:41;96640.66;;;4.59
40624;BMP280;26325;48.594;11.650;2023-12-20T21:01:07;96632.78;;;4.61
40624;BMP280;26325;48.594;11.650;2023-12-20T21:03:33;96639.88;;;4.59
40624;BMP280;26325;48.594;11.650;2023-12-20T21:05:59;96626.69;;;4.62
40624;BMP280;26325;48.594;11.650;2023-12-20T21:08:24;96627.66;;;4.67
40624;BMP280;26325;48.594;11.650;2023-12-20T21:10:50;96630.81;;;4.56
40624;BMP280;26325;48.594;11.650;2023-12-20T21:13:23;96625.16;;;4.55
40624;BMP280;26325;48.594;11.650;2023-12-20T21:15:53;96633.75;;;4.66
40624;BMP280;26325;48.594;11.650;2023-12-20T21:18:18;96623.56;;;4.60
40624;BMP280;26325;48.594;11.650;2023-12-20T21:20:44;96611.72;;;4.65
40624;BMP280;26325;48.594;11.650;2023-12-20T21:23:16;96611.94;;;4.57
40624;BMP280;26325;48.594;11.650;2023-12-20T21:25:44;96612.38;;;4.55
40624;BMP280;26325;48.594;11.650;2023-12-20T21:28:10;96609.94;;;4.66
40624;BMP280;26325;48.594;11.650;2023-12-20T21:30:39;96601.16;;;4.56
40624;BMP280;26325;48.594;11.650;2023-12-20T21:33:06;96594.38;;;4.67
40624;BMP280;26325;48.594;11.650;2023-12-20T21:35:31;96584.97;;;4.61
40624;BMP280;26325;48.594;11.650;2023-12-20T21:37:57;96586.91;;;4.66
40624;BMP280;26325;48.594;11.650;2023-12-20T21:40:23;96583.38;;;4.67
40624;BMP280;26325;48.594;11.650;2023-12-20T21:42:50;96587.53;;;4.61
40624;BMP280;26325;48.594;11.650;2023-12-20T21:45:17;96571.56;;;4.66
40624;BMP280;26325;48.594;11.650;2023-12-20T21:47:42;96564.16;;;4.52
40624;BMP280;26325;48.594;11.650;2023-12-20T21:50:08;96572.19;;;4.61
40624;BMP280;26325;48.594;11.650;2023-12-20T21:52:34;96566.09;;;4.62
40624;BMP280;26325;48.594;11.650;2023-12-20T21:54:59;96557.00;;;4.66
40624;BMP280;26325;48.594;11.650;2023-12-20T21:57:25;96567.22;;;4.66
40624;BMP280;26325;48.594;11.650;2023-12-20T21:59:50;96559.75;;;4.71
40624;BMP280;26325;48.594;11.650;2023-12-20T22:02:18;96560.00;;;4.63
40624;BMP280;26325;48.594;11.650;2023-12-20T22:04:43;96565.09;;;4.63
40624;BMP280;26325;48.594;11.650;2023-12-20T22:07:09;96573.19;;;4.60
40624;BMP280;26325;48.594;11.650;2023-12-20T22:09:35;96563.69;;;4.67
40624;BMP280;26325;48.594;11.650;2023-12-20T22:12:03;96556.03;;;4.67
40624;BMP280;26325;48.594;11.650;2023-12-20T22:14:29;96561.34;;;4.66
40624;BMP280;26325;48.594;11.650;2023-12-20T22:16:59;96553.88;;;4.64
40624;BMP280;26325;48.594;11.650;2023-12-20T22:19:25;96559.41;;;4.61
40624;BMP280;26325;48.594;11.650;2023-12-20T22:21:50;96568.06;;;4.60
40624;BMP280;26325;48.594;11.650;2023-12-20T22:24:18;96557.81;;;4.60
40624;BMP280;26325;48.594;11.650;2023-12-20T22:26:43;96553.50;;;4.61
40624;BMP280;26325;48.594;11.650;2023-12-20T22:29:09;96555.44;;;4.65
40624;BMP280;26325;48.594;11.650;2023-12-20T22:31:34;96542.47;;;4.60
40624;BMP280;26325;48.594;11.650;2023-12-20T22:34:00;96539.75;;;4.56
40624;BMP280;26325;48.594;11.650;2023-12-20T22:36:28;96533.03;;;4.61
40624;BMP280;26325;48.594;11.650;2023-12-20T22:38:54;96529.72;;;4.54
40624;BMP280;26325;48.594;11.650;2023-12-20T22:41:22;96525.50;;;4.72
40624;BMP280;26325;48.594;11.650;2023-12-20T22:43:48;96522.19;;;4.65
40624;BMP280;26325;48.594;11.650;2023-12-20T22:46:14;96506.28;;;4.63
40624;BMP280;26325;48.594;11.650;2023-12-20T22:48:44;96507.50;;;4.55
40624;BMP280;26325;48.594;11.650;2023-12-20T22:51:10;96515.72;;;4.56
40624;BMP280;26325;48.594;11.650;2023-12-20T22:53:35;96534.81;;;4.60
40624;BMP280;26325;48.594;11.650;2023-12-20T22:56:01;96514.94;;;4.56
40624;BMP280;26325;48.594;11.650;2023-12-20T22:58:27;96527.16;;;4.54
40624;BMP280;26325;48.594;11.650;2023-12-20T23:00:52;96510.22;;;4.59
40624;BMP280;26325;48.594;11.650;2023-12-20T23:03:20;96506.91;;;4.53
40624;BMP280;26325;48.594;11.650;2023-12-20T23:05:51;96492.44;;;4.71
40624;BMP280;26325;48.594;11.650;2023-12-20T23:08:21;96491.28;;;4.67
40624;BMP280;26325;48.594;11.650;2023-12-20T23:10:47;96507.25;;;4.62
40624;BMP280;26325;48.594;11.650;2023-12-20T23:13:12;96497.22;;;4.61
40624;BMP280;26325;48.594;11.650;2023-12-20T23:15:41;96493.69;;;4.62
40624;BMP280;26325;48.594;11.650;2023-12-20T23:18:07;96490.13;;;4.63
40624;BMP280;26325;48.594;11.650;2023-12-20T23:20:34;96480.25;;;4.73
40624;BMP280;26325;48.594;11.650;2023-12-20T23:23:00;96490.13;;;4.63
40624;BMP280;26325;48.594;11.650;2023-12-20T23:25:25;96474.81;;;4.56
40624;BMP280;26325;48.594;11.650;2023-12-20T23:27:53;96487.53;;;4.69
40624;BMP280;26325;48.594;11.650;2023-12-20T23:30:19;96483.88;;;4.53
40624;BMP280;26325;48.594;11.650;2023-12-20T23:32:45;96475.59;;;4.57
40624;BMP280;26325;48.594;11.650;2023-12-20T23:35:10;96477.91;;;4.65
40624;BMP280;26325;48.594;11.650;2023-12-20T23:37:37;96484.97;;;4.69
40624;BMP280;26325;48.594;11.650;2023-12-20T23:40:03;96465.34;;;4.63
40624;BMP280;26325;48.594;11.650;2023-12-20T23:42:30;96464.56;;;4.63
40624;BMP280;26325;48.594;11.650;2023-12-20T23:44:55;96450.34;;;4.67
40624;BMP280;26325;48.594;11.650;2023-12-20T23:47:21;96438.53;;;4.66
40624;BMP280;26325;48.594;11.650;2023-12-20T23:49:46;96437.53;;;4.73
40624;BMP280;26325;48.594;11.650;2023-12-20T23:52:12;96421.22;;;4.68
40624;BMP280;26325;48.594;11.650;2023-12-20T23:57:06;96415.69;;;4.71
40624;BMP280;26325;48.594;11.650;2023-12-20T23:59:34;96406.25;;;4.71
